createdAt,value
2022-11-05T00:01:51.720Z,100.00
2022-11-05T00:04:39.201Z,100.00
2022-11-05T00:07:27.210Z,100.00
2022-11-05T00:09:58.691Z,100.00
2022-11-05T00:12:45.151Z,100.00
2022-11-05T00:15:42.500Z,100.00
2022-11-05T00:18:10.999Z,100.00
2022-11-05T00:20:40.218Z,100.00
2022-11-05T00:23:26.006Z,100.00
2022-11-05T00:25:58.252Z,100.00
2022-11-05T00:28:26.436Z,100.00
2022-11-05T00:30:55.066Z,100.00
2022-11-05T00:33:23.791Z,100.00
2022-11-05T00:35:56.625Z,100.00
2022-11-05T00:38:25.237Z,100.00
2022-11-05T00:40:53.599Z,100.00
2022-11-05T00:43:39.422Z,100.00
2022-11-05T00:46:07.546Z,100.00
2022-11-05T00:48:53.832Z,100.00
2022-11-05T00:51:23.828Z,100.00
2022-11-05T00:53:52.404Z,100.00
2022-11-05T00:56:20.789Z,100.00
2022-11-05T00:58:49.679Z,100.00
2022-11-05T01:01:18.878Z,100.00
2022-11-05T01:03:51.452Z,100.00
2022-11-05T01:06:20.261Z,100.00
2022-11-05T01:08:49.202Z,100.00
2022-11-05T01:11:33.517Z,100.00
2022-11-05T01:14:01.963Z,100.00
2022-11-05T01:16:30.347Z,100.00
2022-11-05T01:18:58.145Z,100.00
2022-11-05T01:21:25.802Z,100.00
2022-11-05T01:23:55.647Z,100.00
2022-11-05T01:26:25.751Z,100.00
2022-11-05T01:28:55.085Z,100.00
2022-11-05T01:31:24.036Z,100.00
2022-11-05T01:33:56.430Z,100.00
2022-11-05T01:36:27.032Z,100.00
2022-11-05T01:38:56.056Z,100.00
2022-11-05T01:41:27.514Z,100.00
2022-11-05T01:43:57.392Z,100.00
2022-11-05T01:46:28.913Z,100.00
2022-11-05T01:49:02.985Z,100.00
2022-11-05T01:51:31.893Z,100.00
2022-11-05T01:54:03.127Z,100.00
2022-11-05T01:56:33.622Z,100.00
2022-11-05T01:59:05.542Z,100.00
2022-11-05T02:01:36.378Z,100.00
2022-11-05T02:04:08.014Z,100.00
2022-11-05T02:06:39.023Z,100.00
2022-11-05T02:09:11.811Z,100.00
2022-11-05T02:11:40.157Z,100.00
2022-11-05T02:14:08.085Z,100.00
2022-11-05T02:16:39.271Z,100.00
2022-11-05T02:19:22.783Z,100.00
2022-11-05T02:22:21.453Z,100.00
2022-11-05T02:25:02.557Z,100.00
2022-11-05T02:27:46.328Z,100.00
2022-11-05T02:30:43.829Z,100.00
2022-11-05T02:33:18.840Z,100.00
2022-11-05T02:36:10.425Z,100.00
2022-11-05T02:38:42.173Z,100.00
2022-11-05T02:41:15.528Z,100.00
2022-11-05T02:43:49.357Z,100.00
2022-11-05T02:46:28.603Z,100.00
2022-11-05T02:48:59.643Z,100.00
2022-11-05T02:51:33.334Z,100.00
2022-11-05T02:54:06.402Z,100.00
2022-11-05T02:56:35.115Z,100.00
2022-11-05T02:59:02.675Z,100.00
2022-11-05T03:01:31.732Z,100.00
2022-11-05T03:04:01.005Z,100.00
2022-11-05T03:06:46.542Z,100.00
2022-11-05T03:09:43.281Z,100.00
2022-11-05T03:12:21.345Z,100.00
2022-11-05T03:14:56.111Z,100.00
2022-11-05T03:17:30.584Z,100.00
2022-11-05T03:20:03.160Z,100.00
2022-11-05T03:22:35.363Z,100.00
2022-11-05T03:25:08.566Z,100.00
2022-11-05T03:27:38.371Z,100.00
2022-11-05T03:30:08.151Z,100.00
2022-11-05T03:32:39.907Z,100.00
2022-11-05T03:35:09.803Z,100.00
2022-11-05T03:37:41.050Z,100.00
2022-11-05T03:40:10.691Z,100.00
2022-11-05T03:42:40.188Z,100.00
2022-11-05T03:45:10.413Z,100.00
2022-11-05T03:47:40.631Z,100.00
2022-11-05T03:50:12.817Z,100.00
2022-11-05T03:52:45.172Z,100.00
2022-11-05T03:55:12.850Z,100.00
2022-11-05T03:57:42.703Z,100.00
2022-11-05T04:00:12.425Z,100.00
2022-11-05T04:02:41.386Z,100.00
2022-11-05T04:05:09.080Z,100.00
2022-11-05T04:07:54.300Z,100.00
2022-11-05T04:10:39.537Z,100.00
2022-11-05T04:13:25.368Z,100.00
2022-11-05T04:16:25.479Z,100.00
2022-11-05T04:18:54.466Z,100.00
2022-11-05T04:21:39.551Z,100.00
2022-11-05T04:24:10.662Z,100.00
2022-11-05T04:26:39.515Z,100.00
2022-11-05T04:29:25.004Z,100.00
2022-11-05T04:31:52.891Z,100.00
2022-11-05T04:34:22.615Z,100.00
2022-11-05T04:36:50.248Z,100.00
2022-11-05T04:39:18.858Z,100.00
2022-11-05T04:41:47.929Z,100.00
2022-11-05T04:44:16.193Z,100.00
2022-11-05T04:46:43.883Z,100.00
2022-11-05T04:49:11.527Z,100.00
2022-11-05T04:51:40.421Z,100.00
2022-11-05T04:54:08.009Z,100.00
2022-11-05T04:56:35.615Z,100.00
2022-11-05T04:59:03.164Z,100.00
2022-11-05T05:01:30.864Z,100.00
2022-11-05T05:03:58.568Z,100.00
2022-11-05T05:06:26.152Z,100.00
2022-11-05T05:08:55.093Z,100.00
2022-11-05T05:11:23.382Z,100.00
2022-11-05T05:13:51.325Z,100.00
2022-11-05T05:16:22.084Z,100.00
2022-11-05T05:18:50.561Z,100.00
2022-11-05T05:21:36.450Z,100.00
2022-11-05T05:24:06.082Z,100.00
2022-11-05T05:26:33.633Z,100.00
2022-11-05T05:29:01.227Z,100.00
2022-11-05T05:31:28.844Z,100.00
2022-11-05T05:33:56.987Z,100.00
2022-11-05T05:36:25.131Z,100.00
2022-11-05T05:38:52.752Z,100.00
2022-11-05T05:41:22.050Z,100.00
2022-11-05T05:43:49.685Z,100.00
2022-11-05T05:46:18.404Z,100.00
2022-11-05T05:48:49.853Z,100.00
2022-11-05T05:51:17.727Z,100.00
2022-11-05T05:53:45.507Z,100.00
2022-11-05T05:56:14.919Z,100.00
2022-11-05T05:58:43.849Z,100.00
2022-11-05T06:01:18.542Z,100.00
2022-11-05T06:03:46.528Z,100.00
2022-11-05T06:06:14.872Z,100.00
2022-11-05T06:08:43.246Z,100.00
2022-11-05T06:11:11.050Z,100.00
2022-11-05T06:13:38.664Z,100.00
2022-11-05T06:16:09.440Z,100.00
2022-11-05T06:18:37.784Z,100.00
2022-11-05T06:21:07.077Z,100.00
2022-11-05T06:23:35.803Z,100.00
2022-11-05T06:26:03.838Z,100.00
2022-11-05T06:28:31.648Z,100.00
2022-11-05T06:30:59.316Z,100.00
2022-11-05T06:33:28.588Z,100.00
2022-11-05T06:35:59.380Z,100.00
2022-11-05T06:38:27.181Z,100.00
2022-11-05T06:40:54.772Z,100.00
2022-11-05T06:43:22.320Z,100.00
2022-11-05T06:45:49.888Z,100.00
2022-11-05T06:48:19.521Z,100.00
2022-11-05T06:50:48.463Z,100.00
2022-11-05T06:53:16.354Z,100.00
2022-11-05T06:55:44.805Z,100.00
2022-11-05T06:58:12.428Z,100.00
2022-11-05T07:00:40.070Z,100.00
2022-11-05T07:03:09.601Z,100.00
2022-11-05T07:05:39.526Z,100.00
2022-11-05T07:08:08.543Z,100.00
2022-11-05T07:10:36.121Z,100.00
2022-11-05T07:13:07.712Z,100.00
2022-11-05T07:15:36.481Z,100.00
2022-11-05T07:18:05.172Z,100.00
2022-11-05T07:20:34.471Z,100.00
2022-11-05T07:23:03.552Z,100.00
2022-11-05T07:25:33.755Z,100.00
2022-11-05T07:28:01.768Z,100.00
2022-11-05T07:30:30.529Z,100.00
2022-11-05T07:32:58.174Z,100.00
2022-11-05T07:35:25.851Z,100.00
2022-11-05T07:37:54.925Z,100.00
2022-11-05T07:40:23.536Z,100.00
2022-11-05T07:42:54.095Z,100.00
2022-11-05T07:45:22.319Z,100.00
2022-11-05T07:47:51.361Z,100.00
2022-11-05T07:50:20.706Z,100.00
2022-11-05T07:52:48.957Z,100.00
2022-11-05T07:55:17.112Z,100.00
2022-11-05T07:57:45.341Z,100.00
2022-11-05T08:00:16.189Z,100.00
2022-11-05T08:02:44.118Z,100.00
2022-11-05T08:05:11.892Z,100.00
2022-11-05T08:07:40.018Z,100.00
2022-11-05T08:10:09.068Z,100.00
2022-11-05T08:12:36.795Z,100.00
2022-11-05T08:15:04.661Z,100.00
2022-11-05T08:17:34.101Z,100.00
2022-11-05T08:20:01.643Z,100.00
2022-11-05T08:22:29.244Z,100.00
2022-11-05T08:24:56.881Z,100.00
2022-11-05T08:27:24.538Z,100.00
2022-11-05T08:29:52.229Z,100.00
2022-11-05T08:32:19.987Z,100.00
2022-11-05T08:34:48.908Z,100.00
2022-11-05T08:37:16.561Z,100.00
2022-11-05T08:39:44.220Z,100.00
2022-11-05T08:42:11.782Z,100.00
2022-11-05T08:44:39.318Z,100.00
2022-11-05T08:47:06.957Z,100.00
2022-11-05T08:49:34.604Z,100.00
2022-11-05T08:52:03.517Z,100.00
2022-11-05T08:54:31.092Z,100.00
2022-11-05T08:56:58.651Z,100.00
2022-11-05T08:59:27.080Z,100.00
2022-11-05T09:01:54.726Z,100.00
2022-11-05T09:04:22.492Z,100.00
2022-11-05T09:06:50.153Z,100.00
2022-11-05T09:09:19.052Z,100.00
2022-11-05T09:12:10.606Z,100.00
2022-11-05T09:14:34.425Z,100.00
2022-11-05T09:17:02.160Z,100.00
2022-11-05T09:19:29.773Z,100.00
2022-11-05T09:21:59.312Z,100.00
2022-11-05T09:24:28.335Z,100.00
2022-11-05T09:26:55.966Z,100.00
2022-11-05T09:29:23.489Z,100.00
2022-11-05T09:31:51.054Z,100.00
2022-11-05T09:34:18.647Z,99.02
2022-11-05T09:36:46.217Z,98.90
2022-11-05T09:39:13.904Z,98.74
2022-11-05T09:41:44.457Z,98.53
2022-11-05T09:44:14.987Z,97.10
2022-11-05T09:46:45.218Z,96.16
2022-11-05T09:49:21.761Z,95.99
2022-11-05T09:51:49.520Z,94.27
2022-11-05T09:54:17.132Z,94.16
2022-11-05T09:56:46.240Z,93.78
2022-11-05T09:59:18.813Z,94.57
2022-11-05T10:01:47.395Z,93.49
2022-11-05T10:04:19.332Z,93.09
2022-11-05T10:06:50.019Z,93.04
2022-11-05T10:09:21.915Z,91.17
2022-11-05T10:11:53.148Z,91.52
2022-11-05T10:14:24.109Z,91.44
2022-11-05T10:16:54.418Z,89.66
2022-11-05T10:19:24.982Z,91.29
2022-11-05T10:22:11.233Z,90.95
2022-11-05T10:24:42.285Z,89.88
2022-11-05T10:27:15.937Z,89.47
2022-11-05T10:29:44.588Z,89.74
2022-11-05T10:32:16.039Z,89.86
2022-11-05T10:34:43.834Z,89.10
2022-11-05T10:37:11.593Z,89.64
2022-11-05T10:39:39.257Z,89.59
2022-11-05T10:42:33.692Z,90.15
2022-11-05T10:45:07.014Z,89.13
2022-11-05T10:47:50.182Z,88.93
2022-11-05T10:50:20.080Z,89.03
2022-11-05T10:52:56.528Z,88.97
2022-11-05T10:55:26.356Z,87.30
2022-11-05T10:57:57.011Z,86.12
2022-11-05T11:00:28.276Z,87.14
2022-11-05T11:02:59.044Z,85.36
2022-11-05T11:05:29.265Z,85.53
2022-11-05T11:08:01.335Z,85.63
2022-11-05T11:10:30.161Z,85.99
2022-11-05T11:12:59.346Z,85.94
2022-11-05T11:15:29.054Z,85.98
2022-11-05T11:17:57.244Z,85.10
2022-11-05T11:20:27.636Z,84.86
2022-11-05T11:23:06.827Z,82.77
2022-11-05T11:25:40.958Z,83.75
2022-11-05T11:28:17.871Z,83.19
2022-11-05T11:30:49.496Z,83.61
2022-11-05T11:33:22.905Z,83.26
2022-11-05T11:35:50.506Z,83.45
2022-11-05T11:38:18.557Z,82.00
2022-11-05T11:40:46.321Z,83.16
2022-11-05T11:43:22.893Z,84.59
2022-11-05T11:45:53.183Z,84.45
2022-11-05T11:48:23.705Z,83.31
2022-11-05T11:50:51.732Z,82.33
2022-11-05T11:53:28.551Z,81.50
2022-11-05T11:56:02.368Z,82.94
2022-11-05T11:58:49.884Z,82.17
2022-11-05T12:01:56.759Z,80.31
2022-11-05T12:04:51.508Z,80.43
2022-11-05T12:07:37.424Z,80.15
2022-11-05T12:10:22.436Z,81.52
2022-11-05T12:12:58.631Z,83.13
2022-11-05T12:15:38.634Z,83.29
2022-11-05T12:18:07.474Z,83.46
2022-11-05T12:20:57.849Z,82.07
2022-11-05T12:23:38.881Z,82.53
2022-11-05T12:26:13.506Z,81.85
2022-11-05T12:31:56.843Z,81.55
2022-11-05T12:34:43.775Z,81.17
2022-11-05T12:37:23.624Z,81.05
2022-11-05T12:40:02.299Z,81.30
2022-11-05T12:42:42.163Z,82.34
2022-11-05T12:45:19.171Z,81.55
2022-11-05T12:47:59.745Z,81.62
2022-11-05T12:50:32.649Z,82.48
2022-11-05T12:53:18.882Z,83.07
2022-11-05T12:55:49.475Z,82.58
2022-11-05T12:58:22.752Z,82.13
2022-11-05T13:00:56.056Z,78.94
2022-11-05T13:03:34.815Z,80.27
2022-11-05T13:06:08.842Z,79.35
2022-11-05T13:08:42.424Z,81.79
2022-11-05T13:11:16.493Z,82.36
2022-11-05T13:13:47.807Z,83.67
2022-11-05T13:16:25.890Z,85.15
2022-11-05T13:18:57.383Z,87.15
2022-11-05T13:21:28.417Z,89.04
2022-11-05T13:23:59.135Z,91.30
2022-11-05T13:26:30.639Z,93.00
2022-11-05T13:29:06.891Z,94.73
2022-11-05T13:31:37.710Z,95.22
2022-11-05T13:34:11.413Z,96.82
2022-11-05T13:37:05.994Z,94.63
2022-11-05T13:39:35.972Z,93.24
2022-11-05T13:42:49.692Z,92.07
2022-11-05T13:45:29.437Z,93.01
2022-11-05T13:48:22.937Z,94.92
2022-11-05T13:51:11.366Z,94.57
2022-11-05T13:53:51.677Z,95.64
2022-11-05T13:56:27.335Z,94.87
2022-11-05T13:59:06.192Z,96.16
2022-11-05T14:01:44.192Z,96.10
2022-11-05T14:04:17.636Z,96.54
2022-11-05T14:06:46.596Z,96.91
2022-11-05T14:09:27.364Z,96.50
2022-11-05T14:11:56.983Z,97.04
2022-11-05T14:14:27.841Z,98.00
2022-11-05T14:17:14.119Z,97.22
2022-11-05T14:19:52.042Z,97.48
2022-11-05T14:22:38.518Z,98.16
2022-11-05T14:25:43.414Z,98.58
2022-11-05T14:28:29.149Z,97.77
2022-11-05T14:30:56.778Z,97.75
2022-11-05T14:33:32.802Z,97.21
2022-11-05T14:36:27.511Z,97.42
2022-11-05T14:39:04.081Z,97.53
2022-11-05T14:41:32.155Z,97.23
2022-11-05T14:44:01.926Z,97.81
2022-11-05T14:46:41.124Z,98.58
2022-11-05T14:49:16.649Z,99.42
2022-11-05T14:51:46.363Z,99.67
2022-11-05T14:54:20.974Z,100.00
2022-11-05T14:56:56.375Z,100.00
2022-11-05T14:59:52.806Z,100.00
2022-11-05T15:02:22.814Z,99.76
2022-11-05T15:04:52.700Z,98.00
2022-11-05T15:07:38.921Z,98.40
2022-11-05T15:10:12.423Z,99.26
2022-11-05T15:12:43.485Z,100.00
2022-11-05T15:15:23.243Z,100.00
2022-11-05T15:18:00.591Z,99.46
2022-11-05T15:20:38.797Z,98.76
2022-11-05T15:23:08.931Z,98.79
2022-11-05T15:25:49.000Z,99.17
2022-11-05T15:28:28.637Z,99.80
2022-11-05T15:30:57.898Z,99.82
2022-11-05T15:33:25.545Z,99.95
2022-11-05T15:35:53.184Z,100.00
2022-11-05T15:38:30.225Z,100.00
2022-11-05T15:41:01.019Z,100.00
2022-11-05T15:43:28.636Z,100.00
2022-11-05T15:46:03.718Z,100.00
2022-11-05T15:48:31.637Z,100.00
2022-11-05T15:50:59.778Z,100.00
2022-11-05T15:54:15.772Z,100.00
2022-11-05T15:56:23.579Z,100.00
2022-11-05T15:58:54.560Z,99.94
2022-11-05T16:01:23.849Z,99.49
2022-11-05T16:03:53.220Z,100.00
2022-11-05T16:06:21.121Z,100.00
2022-11-05T16:08:49.809Z,100.00
2022-11-05T16:11:26.226Z,100.00
2022-11-05T16:13:54.503Z,100.00
2022-11-05T16:16:26.252Z,100.00
2022-11-05T16:18:53.857Z,100.00
2022-11-05T16:21:23.509Z,100.00
2022-11-05T16:23:55.024Z,100.00
2022-11-05T16:27:01.881Z,100.00
2022-11-05T16:29:31.487Z,100.00
2022-11-05T16:31:59.933Z,100.00
2022-11-05T16:34:29.295Z,100.00
2022-11-05T16:36:57.670Z,100.00
2022-11-05T16:39:25.977Z,100.00
2022-11-05T16:41:54.922Z,100.00
2022-11-05T16:44:22.754Z,100.00
2022-11-05T16:46:50.908Z,100.00
2022-11-05T16:49:19.095Z,100.00
2022-11-05T16:51:46.676Z,100.00
2022-11-05T16:54:14.214Z,100.00
2022-11-05T16:56:43.793Z,100.00
2022-11-05T16:59:14.199Z,100.00
2022-11-05T17:01:43.482Z,100.00
2022-11-05T17:04:13.855Z,100.00
2022-11-05T17:06:41.466Z,100.00
2022-11-05T17:09:09.093Z,100.00
2022-11-05T17:11:36.666Z,100.00
2022-11-05T17:14:04.343Z,100.00
2022-11-05T17:16:33.281Z,100.00
2022-11-05T17:19:00.835Z,100.00
2022-11-05T17:21:28.750Z,100.00
2022-11-05T17:23:56.371Z,100.00
2022-11-05T17:26:24.157Z,100.00
2022-11-05T17:28:51.756Z,100.00
2022-11-05T17:31:19.611Z,100.00
2022-11-05T17:33:48.539Z,100.00
2022-11-05T17:36:16.698Z,100.00
2022-11-05T17:38:44.377Z,100.00
2022-11-05T17:41:12.921Z,100.00
2022-11-05T17:43:40.827Z,100.00
2022-11-05T17:46:09.662Z,100.00
2022-11-05T17:48:37.760Z,100.00
2022-11-05T17:51:09.882Z,100.00
2022-11-05T17:53:37.936Z,100.00
2022-11-05T17:56:09.127Z,100.00
2022-11-05T17:58:36.854Z,100.00
2022-11-05T18:01:04.577Z,100.00
2022-11-05T18:03:32.195Z,100.00
2022-11-05T18:06:02.292Z,100.00
2022-11-05T18:08:31.291Z,100.00
2022-11-05T18:10:59.241Z,100.00
2022-11-05T18:13:26.822Z,100.00
2022-11-05T18:15:54.917Z,100.00
2022-11-05T18:18:22.957Z,100.00
2022-11-05T18:20:50.522Z,100.00
2022-11-05T18:23:18.144Z,100.00
2022-11-05T18:25:47.127Z,100.00
2022-11-05T18:28:14.949Z,100.00
2022-11-05T18:30:42.676Z,100.00
2022-11-05T18:33:10.766Z,100.00
2022-11-05T18:35:42.434Z,100.00
2022-11-05T18:38:10.069Z,100.00
2022-11-05T18:40:37.668Z,100.00
2022-11-05T18:43:06.588Z,100.00
2022-11-05T18:45:34.512Z,100.00
2022-11-05T18:48:04.366Z,100.00
2022-11-05T18:50:32.234Z,100.00
2022-11-05T18:52:59.775Z,100.00
2022-11-05T18:55:27.319Z,100.00
2022-11-05T18:57:54.922Z,100.00
2022-11-05T19:00:23.846Z,100.00
2022-11-05T19:02:51.501Z,100.00
2022-11-05T19:05:34.509Z,100.00
2022-11-05T19:08:02.254Z,100.00
2022-11-05T19:10:29.852Z,100.00
2022-11-05T19:12:57.765Z,100.00
2022-11-05T19:15:26.737Z,100.00
2022-11-05T19:17:54.342Z,100.00
2022-11-05T19:20:22.086Z,100.00
2022-11-05T19:22:49.950Z,100.00
2022-11-05T19:25:17.651Z,100.00
2022-11-05T19:27:45.229Z,100.00
2022-11-05T19:30:13.233Z,100.00
2022-11-05T19:32:42.174Z,100.00
2022-11-05T19:35:10.214Z,100.00
2022-11-05T19:37:37.894Z,100.00
2022-11-05T19:40:06.435Z,100.00
2022-11-05T19:42:34.071Z,100.00
2022-11-05T19:45:22.903Z,100.00
2022-11-05T19:47:50.698Z,100.00
2022-11-05T19:50:18.431Z,100.00
2022-11-05T19:52:46.059Z,100.00
2022-11-05T19:55:13.654Z,100.00
2022-11-05T19:57:41.343Z,100.00
2022-11-05T20:00:10.215Z,100.00
2022-11-05T20:02:37.886Z,100.00
2022-11-05T20:05:07.196Z,100.00
2022-11-05T20:07:34.791Z,100.00
2022-11-05T20:10:02.423Z,100.00
2022-11-05T20:12:30.000Z,100.00
2022-11-05T20:14:57.641Z,100.00
2022-11-05T20:17:25.269Z,100.00
2022-11-05T20:19:53.105Z,100.00
2022-11-05T20:22:22.079Z,100.00
2022-11-05T20:24:49.666Z,100.00
2022-11-05T20:27:17.294Z,100.00
2022-11-05T20:29:45.001Z,100.00
2022-11-05T20:32:12.952Z,100.00
2022-11-05T20:34:40.898Z,100.00
2022-11-05T20:37:08.932Z,100.00
2022-11-05T20:39:37.988Z,100.00
2022-11-05T20:42:05.833Z,100.00
2022-11-05T20:44:33.501Z,100.00
2022-11-05T20:47:01.173Z,100.00
2022-11-05T20:49:29.581Z,100.00
2022-11-05T20:51:57.460Z,100.00
2022-11-05T20:54:25.644Z,100.00
2022-11-05T20:56:54.891Z,100.00
2022-11-05T20:59:22.950Z,100.00
2022-11-05T21:01:51.657Z,100.00
2022-11-05T21:04:19.602Z,100.00
2022-11-05T21:06:47.265Z,100.00
2022-11-05T21:09:15.060Z,100.00
2022-11-05T21:12:00.550Z,100.00
2022-11-05T21:14:29.772Z,100.00
2022-11-05T21:16:57.979Z,100.00
2022-11-05T21:19:25.915Z,100.00
2022-11-05T21:21:53.727Z,100.00
2022-11-05T21:24:22.169Z,100.00
2022-11-05T21:26:50.883Z,100.00
2022-11-05T21:29:19.727Z,100.00
2022-11-05T21:31:49.093Z,100.00
2022-11-05T21:34:17.583Z,100.00
2022-11-05T21:36:45.338Z,100.00
2022-11-05T21:39:13.892Z,100.00
2022-11-05T21:41:42.510Z,100.00
2022-11-05T21:44:10.190Z,100.00
2022-11-05T21:46:37.785Z,100.00
2022-11-05T21:49:06.851Z,100.00
2022-11-05T21:51:52.326Z,100.00
2022-11-05T21:54:37.788Z,100.00
2022-11-05T21:57:23.388Z,100.00
2022-11-05T21:59:51.999Z,100.00
2022-11-05T22:02:21.568Z,100.00
2022-11-05T22:04:52.484Z,100.00
2022-11-05T22:07:21.397Z,100.00
2022-11-05T22:09:49.578Z,100.00
2022-11-05T22:12:17.424Z,100.00
2022-11-05T22:14:45.195Z,100.00
2022-11-05T22:17:13.435Z,100.00
2022-11-05T22:19:41.344Z,100.00
2022-11-05T22:22:10.327Z,100.00
2022-11-05T22:24:38.448Z,100.00
2022-11-05T22:27:08.739Z,100.00
2022-11-05T22:29:36.941Z,100.00
2022-11-05T22:32:05.192Z,100.00
2022-11-05T22:34:33.011Z,100.00
2022-11-05T22:37:00.913Z,100.00
2022-11-05T22:39:30.031Z,100.00
2022-11-05T22:41:58.495Z,100.00
2022-11-05T22:44:27.813Z,100.00
2022-11-05T22:46:55.661Z,100.00
2022-11-05T22:49:23.631Z,100.00
2022-11-05T22:51:51.533Z,100.00
2022-11-05T22:54:19.500Z,100.00
2022-11-05T22:56:50.174Z,100.00
2022-11-05T22:59:18.976Z,100.00
2022-11-05T23:01:47.690Z,100.00
2022-11-05T23:04:15.987Z,100.00
2022-11-05T23:07:01.715Z,100.00
2022-11-05T23:09:51.568Z,100.00
2022-11-05T23:12:26.133Z,100.00
2022-11-05T23:14:54.428Z,100.00
2022-11-05T23:17:39.670Z,100.00
2022-11-05T23:20:29.012Z,100.00
2022-11-05T23:23:25.706Z,100.00
2022-11-05T23:25:57.554Z,100.00
2022-11-05T23:28:26.831Z,100.00
2022-11-05T23:31:12.498Z,100.00
2022-11-05T23:33:40.297Z,100.00
2022-11-05T23:36:26.190Z,100.00
2022-11-05T23:38:53.977Z,100.00
2022-11-05T23:41:41.583Z,100.00
2022-11-05T23:44:28.523Z,100.00
2022-11-05T23:47:13.931Z,100.00
2022-11-05T23:49:41.492Z,100.00
2022-11-05T23:52:09.127Z,100.00
2022-11-05T23:54:36.681Z,100.00
2022-11-05T23:57:04.447Z,100.00
2022-11-05T23:59:33.426Z,100.00
